»·PEaware :: SWA4541 KTUS-KGEG

SWA4541 :: KTUS-KGEG

FLIGHT INFORMATION

Flight Status: Arrived
Operator:
Southwest Airlines
More flights by this operator :: More flights under this callsign
Pilot: Tristan Z. (4790)
Aircraft: BOEING 737-700
(B737)
More flights by this aircraft type
Origin: KTUS Tucson Intl
United States
Destination: KGEG Spokane Intl
United States
More flights between these airports :: More routes between these airports
Route: +TUS8 PXR GCN BERYL ELY J523 REO J153 GEG
File this flight plan on PilotEdge
Remarks:
Altitude:
(Current/Filed)
38,000ft
Speed:
(Current/Filed)
461kts
Departed: 04-Nov-20 06:29 PM
Arrived: 04-Nov-20 09:05 PM
Distance/Time
Traveled:
978nm/2:36
Distance/Time
To Go:
Arrived

Flight Plot

Page will automatically refresh every two minutes.

Flight plan parsing failed; only flown route is shown


Map Options




Map Legend


Flown Route
Filed Route
Departure Airport
Arrival Airport
Navaid (VOR, NDB)
Fix

Horizontal Profiles

Position Reports

Time Latitude Longitude Heading Altitude Ground
Speed
04-Nov-20 18:08 32.119649 -110.937839 94 2651ft 0kts
04-Nov-20 18:09 32.119649 -110.937839 94 2651ft 0kts
04-Nov-20 18:10 32.119649 -110.937839 94 2651ft 0kts
04-Nov-20 18:11 32.119649 -110.937839 94 2651ft 0kts
04-Nov-20 18:12 32.119649 -110.937839 94 2651ft 0kts
04-Nov-20 18:13 32.119649 -110.937839 94 2650ft 0kts
04-Nov-20 18:14 32.119649 -110.937839 94 2650ft 0kts
04-Nov-20 18:15 32.119649 -110.937839 94 2650ft 0kts
04-Nov-20 18:16 32.119649 -110.937839 94 2650ft 0kts
04-Nov-20 18:17 32.119649 -110.937839 94 2650ft 0kts
04-Nov-20 18:18 32.119649 -110.937840 94 2651ft 0kts
04-Nov-20 18:19 32.119649 -110.937840 94 2651ft 0kts
04-Nov-20 18:20 32.119677 -110.938239 94 2651ft 2kts
04-Nov-20 18:21 32.119695 -110.938484 94 2650ft 0kts
04-Nov-20 18:22 32.119687 -110.938444 108 2650ft 0kts
04-Nov-20 18:23 32.117947 -110.937847 183 2650ft 7kts
04-Nov-20 18:24 32.114680 -110.935192 135 2650ft 21kts
04-Nov-20 18:25 32.109893 -110.929579 134 2651ft 25kts
04-Nov-20 18:26 32.105016 -110.923859 136 2651ft 19kts
04-Nov-20 18:27 32.102864 -110.922609 224 2650ft 4kts
04-Nov-20 18:28 32.110535 -110.932831 315 2651ft 147kts
04-Nov-20 18:29 32.148819 -110.935744 64 4663ft 218kts
04-Nov-20 18:30 32.110884 -110.881870 185 7255ft 278kts
04-Nov-20 18:31 32.077316 -110.947179 293 10690ft 288kts
04-Nov-20 18:32 32.141267 -110.996490 7 13646ft 323kts
04-Nov-20 18:33 32.234196 -110.986765 328 16005ft 354kts
04-Nov-20 18:34 32.315347 -111.055949 325 16949ft 356kts
04-Nov-20 18:35 32.401799 -111.115615 328 17547ft 365kts
04-Nov-20 18:36 32.491675 -111.174770 327 20534ft 376kts
04-Nov-20 18:37 32.584087 -111.235727 327 23126ft 388kts
04-Nov-20 18:38 32.679452 -111.298792 326 25472ft 399kts
04-Nov-20 18:39 32.777255 -111.363617 326 27593ft 410kts
04-Nov-20 18:40 32.877692 -111.430363 325 29504ft 420kts
04-Nov-20 18:41 32.977775 -111.501759 316 31581ft 414kts
04-Nov-20 18:42 33.064216 -111.589990 318 33511ft 412kts
04-Nov-20 18:43 33.152161 -111.680190 318 34903ft 421kts
04-Nov-20 18:44 33.240162 -111.770709 319 36591ft 418kts
04-Nov-20 18:45 33.327518 -111.860802 318 37982ft 417kts
04-Nov-20 18:46 33.422768 -111.945686 334 38092ft 445kts
04-Nov-20 18:47 33.543409 -111.977734 354 38097ft 447kts
04-Nov-20 18:48 33.667217 -111.986026 355 38112ft 446kts
04-Nov-20 18:49 33.790650 -111.994422 355 38113ft 446kts
04-Nov-20 18:50 33.914381 -112.002843 355 38112ft 446kts
04-Nov-20 18:51 34.037878 -112.011289 355 38109ft 446kts
04-Nov-20 18:52 34.161384 -112.019700 355 38203ft 445kts
04-Nov-20 18:53 34.285115 -112.028224 355 38337ft 448kts
04-Nov-20 18:54 34.408756 -112.036751 355 38333ft 445kts
04-Nov-20 18:55 34.532008 -112.045244 355 38334ft 446kts
04-Nov-20 18:56 34.655927 -112.053873 355 38340ft 447kts
04-Nov-20 18:57 34.779931 -112.062483 355 38346ft 447kts
04-Nov-20 18:58 34.903631 -112.071095 355 38354ft 445kts
04-Nov-20 18:59 35.024516 -112.079591 355 38429ft 426kts
04-Nov-20 19:00 35.141704 -112.087831 356 38461ft 424kts
04-Nov-20 19:01 35.259352 -112.096106 356 38459ft 424kts
04-Nov-20 19:02 35.376846 -112.104398 356 38458ft 424kts
04-Nov-20 19:04 35.494222 -112.112708 356 38457ft 424kts
04-Nov-20 19:05 35.612036 -112.121074 356 38456ft 424kts
04-Nov-20 19:06 35.729531 -112.129433 356 38455ft 424kts
04-Nov-20 19:07 35.846901 -112.137821 356 38454ft 424kts
04-Nov-20 19:08 35.963577 -112.154078 343 38456ft 423kts
04-Nov-20 19:09 36.071947 -112.215331 335 38479ft 432kts
04-Nov-20 19:10 36.178638 -112.281977 335 38487ft 429kts
04-Nov-20 19:11 36.284135 -112.347970 335 38486ft 430kts
04-Nov-20 19:12 36.391866 -112.415572 335 38479ft 430kts
04-Nov-20 19:13 36.498031 -112.482399 335 38334ft 435kts
04-Nov-20 19:14 36.603858 -112.549206 335 38331ft 429kts
04-Nov-20 19:15 36.710568 -112.616792 335 38326ft 430kts
04-Nov-20 19:16 36.816784 -112.684301 334 38322ft 430kts
04-Nov-20 19:17 36.923397 -112.752266 334 38319ft 430kts
04-Nov-20 19:18 37.029632 -112.820188 334 38315ft 428kts
04-Nov-20 19:19 37.135476 -112.888074 334 38323ft 427kts
04-Nov-20 19:20 37.241524 -112.956300 334 38325ft 431kts
04-Nov-20 19:21 37.348335 -113.025238 334 38325ft 434kts
04-Nov-20 19:21 37.437817 -113.083166 334 38327ft 435kts
04-Nov-20 19:23 37.563001 -113.164464 334 38329ft 435kts
04-Nov-20 19:23 37.652694 -113.222904 334 38328ft 435kts
04-Nov-20 19:25 37.777754 -113.304655 334 38327ft 435kts
04-Nov-20 19:25 37.866925 -113.363138 334 38327ft 435kts
04-Nov-20 19:26 37.965320 -113.452022 322 38436ft 438kts
04-Nov-20 19:27 38.059803 -113.548928 323 38435ft 437kts
04-Nov-20 19:28 38.154053 -113.645653 323 38441ft 437kts
04-Nov-20 19:29 38.248686 -113.743149 322 38440ft 437kts
04-Nov-20 19:30 38.342938 -113.840555 322 38440ft 437kts
04-Nov-20 19:31 38.436978 -113.938082 322 38443ft 437kts
04-Nov-20 19:32 38.531181 -114.036115 322 38466ft 437kts
04-Nov-20 19:33 38.625295 -114.134386 322 38474ft 437kts
04-Nov-20 19:34 38.719035 -114.232612 322 38474ft 437kts
04-Nov-20 19:35 38.812993 -114.331411 322 38473ft 437kts
04-Nov-20 19:36 38.906918 -114.430501 322 38473ft 436kts
04-Nov-20 19:37 38.998954 -114.527993 322 38469ft 422kts
04-Nov-20 19:38 39.088272 -114.622895 321 38468ft 417kts
04-Nov-20 19:39 39.177798 -114.718391 320 38479ft 419kts
04-Nov-20 19:40 39.267259 -114.814118 320 38478ft 418kts
04-Nov-20 19:41 39.361016 -114.902714 326 38477ft 418kts
04-Nov-20 19:42 39.457513 -114.986139 326 38476ft 418kts
04-Nov-20 19:43 39.553948 -115.069903 325 38475ft 421kts
04-Nov-20 19:44 39.651231 -115.154689 325 38474ft 423kts
04-Nov-20 19:45 39.749054 -115.240238 325 38473ft 425kts
04-Nov-20 19:46 39.846895 -115.326383 325 38471ft 424kts
04-Nov-20 19:47 39.944439 -115.412300 325 38449ft 425kts
04-Nov-20 19:48 40.042198 -115.498693 325 38424ft 424kts
04-Nov-20 19:49 40.139656 -115.585123 325 38429ft 425kts
04-Nov-20 19:50 40.237155 -115.671908 324 38432ft 425kts
04-Nov-20 19:51 40.334173 -115.758605 325 38432ft 424kts
04-Nov-20 19:52 40.430367 -115.844821 325 38431ft 424kts
04-Nov-20 19:53 40.528843 -115.933396 325 38430ft 424kts
04-Nov-20 19:54 40.626187 -116.021270 325 38429ft 424kts
04-Nov-20 19:55 40.723225 -116.109180 325 38428ft 424kts
04-Nov-20 19:56 40.820254 -116.197400 325 38427ft 424kts
04-Nov-20 19:57 40.917126 -116.285793 325 38426ft 424kts
04-Nov-20 19:58 41.013923 -116.374426 324 38423ft 419kts
04-Nov-20 19:59 41.107841 -116.460760 322 38425ft 405kts
04-Nov-20 20:00 41.199867 -116.545659 322 38427ft 405kts
04-Nov-20 20:01 41.292347 -116.631244 322 38425ft 405kts
04-Nov-20 20:02 41.384470 -116.716911 322 38433ft 405kts
04-Nov-20 20:03 41.476521 -116.802713 322 38432ft 404kts
04-Nov-20 20:04 41.568535 -116.888773 322 38430ft 404kts
04-Nov-20 20:05 41.660720 -116.975300 321 38416ft 406kts
04-Nov-20 20:06 41.752736 -117.061968 321 38401ft 407kts
04-Nov-20 20:07 41.845130 -117.149302 321 38367ft 408kts
04-Nov-20 20:08 41.937269 -117.238204 320 38362ft 410kts
04-Nov-20 20:09 42.030176 -117.326770 320 38359ft 410kts
04-Nov-20 20:10 42.122883 -117.415413 320 38363ft 410kts
04-Nov-20 20:11 42.215585 -117.504362 320 38362ft 410kts
04-Nov-20 20:12 42.308366 -117.593724 320 38360ft 410kts
04-Nov-20 20:13 42.400965 -117.683288 320 38369ft 410kts
04-Nov-20 20:14 42.493135 -117.772776 320 38368ft 409kts
04-Nov-20 20:15 42.591567 -117.850715 337 38371ft 420kts
04-Nov-20 20:16 42.710072 -117.865368 354 38367ft 436kts
04-Nov-20 20:17 42.831470 -117.861895 354 38365ft 436kts
04-Nov-20 20:18 42.952368 -117.858750 352 38365ft 435kts
04-Nov-20 20:19 43.072714 -117.855602 351 38365ft 434kts
04-Nov-20 20:20 43.193509 -117.852444 351 38370ft 436kts
04-Nov-20 20:21 43.314236 -117.849246 351 38368ft 434kts
04-Nov-20 20:22 43.434953 -117.846071 351 38369ft 435kts
04-Nov-20 20:23 43.555482 -117.842851 351 38364ft 434kts
04-Nov-20 20:24 43.676299 -117.839638 351 38343ft 434kts
04-Nov-20 20:25 43.796796 -117.836410 351 38339ft 435kts
04-Nov-20 20:26 43.918074 -117.833145 351 38339ft 435kts
04-Nov-20 20:27 44.038549 -117.829890 351 38335ft 434kts
04-Nov-20 20:28 44.159079 -117.826629 351 38327ft 435kts
04-Nov-20 20:29 44.280273 -117.823333 351 38324ft 434kts
04-Nov-20 20:30 44.400889 -117.820030 351 38323ft 434kts
04-Nov-20 20:31 44.520960 -117.816740 351 38322ft 435kts
04-Nov-20 20:32 44.642275 -117.813395 351 38321ft 434kts
04-Nov-20 20:33 44.762993 -117.810035 351 38321ft 435kts
04-Nov-20 20:34 44.883918 -117.805487 353 38321ft 436kts
04-Nov-20 20:35 45.005354 -117.797387 352 38313ft 437kts
04-Nov-20 20:36 45.127120 -117.789660 350 38290ft 440kts
04-Nov-20 20:37 45.249847 -117.781800 350 38288ft 441kts
04-Nov-20 20:38 45.372090 -117.773944 350 38289ft 442kts
04-Nov-20 20:39 45.494675 -117.766041 350 38289ft 442kts
04-Nov-20 20:40 45.617295 -117.758105 350 38290ft 441kts
04-Nov-20 20:41 45.739445 -117.750187 350 38291ft 442kts
04-Nov-20 20:42 45.861218 -117.742207 350 38272ft 441kts
04-Nov-20 20:43 45.982307 -117.734271 350 37004ft 437kts
04-Nov-20 20:44 46.103245 -117.726270 350 33806ft 440kts
04-Nov-20 20:45 46.226086 -117.718066 351 30449ft 440kts
04-Nov-20 20:46 46.343808 -117.710199 351 28151ft 417kts
04-Nov-20 20:47 46.459849 -117.702620 352 25849ft 426kts
04-Nov-20 20:48 46.574633 -117.694779 352 24253ft 412kts
04-Nov-20 20:49 46.686552 -117.687210 352 22996ft 405kts
04-Nov-20 20:50 46.799231 -117.679559 354 18976ft 405kts
04-Nov-20 20:51 46.908841 -117.672104 354 16319ft 387kts
04-Nov-20 20:52 47.013708 -117.664961 354 13902ft 372kts
04-Nov-20 20:53 47.114357 -117.657978 354 13046ft 345kts
04-Nov-20 20:54 47.204211 -117.651847 354 13009ft 321kts
04-Nov-20 20:55 47.292828 -117.645715 355 11233ft 314kts
04-Nov-20 20:56 47.378582 -117.639770 357 9440ft 316kts
04-Nov-20 20:57 47.464308 -117.633811 359 7749ft 312kts
04-Nov-20 20:59 47.545702 -117.622970 29 6267ft 284kts
04-Nov-20 21:00 47.570841 -117.529575 90 5069ft 246kts
04-Nov-20 21:01 47.571950 -117.437820 93 3979ft 204kts
04-Nov-20 21:02 47.607833 -117.405493 323 3985ft 203kts
04-Nov-20 21:03 47.618179 -117.465946 249 3336ft 136kts
04-Nov-20 21:04 47.616816 -117.519117 264 2441ft 128kts
04-Nov-20 21:05 47.617464 -117.542771 19 2391ft 15kts
04-Nov-20 21:06 47.620377 -117.538604 44 2391ft 20kts
04-Nov-20 21:07 47.624622 -117.532367 14 2391ft 11kts
04-Nov-20 21:08 47.625600 -117.534006 280 2391ft 2kts
04-Nov-20 21:09 47.625602 -117.534028 280 2391ft 0kts

Navigation Log

Ident Type
Flight plan parsing failed, navigation log unavailable